sensor_id;sensor_type;location;lat;lon;timestamp;P1;durP1;ratioP1;P2;durP2;ratioP2
9795;SDS011;4937;42.680;27.704;2024-02-26T00:01:40;20.48;;;11.18;;
9795;SDS011;4937;42.680;27.704;2024-02-26T00:04:08;20.98;;;9.90;;
9795;SDS011;4937;42.680;27.704;2024-02-26T00:06:34;20.83;;;11.07;;
9795;SDS011;4937;42.680;27.704;2024-02-26T00:09:00;23.77;;;11.52;;
9795;SDS011;4937;42.680;27.704;2024-02-26T00:11:27;17.33;;;10.60;;
9795;SDS011;4937;42.680;27.704;2024-02-26T00:13:53;18.60;;;10.35;;
9795;SDS011;4937;42.680;27.704;2024-02-26T00:16:18;16.67;;;9.98;;
9795;SDS011;4937;42.680;27.704;2024-02-26T00:18:44;19.85;;;10.18;;
9795;SDS011;4937;42.680;27.704;2024-02-26T00:21:09;15.23;;;8.75;;
9795;SDS011;4937;42.680;27.704;2024-02-26T00:23:35;17.08;;;9.23;;
9795;SDS011;4937;42.680;27.704;2024-02-26T00:26:00;23.15;;;11.57;;
9795;SDS011;4937;42.680;27.704;2024-02-26T00:28:28;19.85;;;9.15;;
9795;SDS011;4937;42.680;27.704;2024-02-26T00:30:54;17.27;;;10.48;;
9795;SDS011;4937;42.680;27.704;2024-02-26T00:33:21;19.75;;;10.55;;
9795;SDS011;4937;42.680;27.704;2024-02-26T00:35:47;20.23;;;11.30;;
9795;SDS011;4937;42.680;27.704;2024-02-26T00:38:13;20.50;;;10.10;;
9795;SDS011;4937;42.680;27.704;2024-02-26T00:40:39;20.60;;;10.73;;
9795;SDS011;4937;42.680;27.704;2024-02-26T00:43:06;19.40;;;11.13;;
9795;SDS011;4937;42.680;27.704;2024-02-26T00:45:31;20.40;;;10.48;;
9795;SDS011;4937;42.680;27.704;2024-02-26T00:47:57;26.48;;;12.15;;
9795;SDS011;4937;42.680;27.704;2024-02-26T00:50:23;20.90;;;11.63;;
9795;SDS011;4937;42.680;27.704;2024-02-26T00:52:49;20.98;;;10.60;;
9795;SDS011;4937;42.680;27.704;2024-02-26T00:55:14;23.58;;;11.90;;
9795;SDS011;4937;42.680;27.704;2024-02-26T00:57:40;19.80;;;10.75;;
9795;SDS011;4937;42.680;27.704;2024-02-26T01:00:06;22.33;;;11.73;;
9795;SDS011;4937;42.680;27.704;2024-02-26T01:02:34;22.65;;;11.77;;
9795;SDS011;4937;42.680;27.704;2024-02-26T01:04:59;24.35;;;12.05;;
9795;SDS011;4937;42.680;27.704;2024-02-26T01:07:25;20.00;;;10.88;;
9795;SDS011;4937;42.680;27.704;2024-02-26T01:09:50;21.70;;;11.50;;
9795;SDS011;4937;42.680;27.704;2024-02-26T01:12:16;21.42;;;11.25;;
9795;SDS011;4937;42.680;27.704;2024-02-26T01:14:41;17.50;;;10.15;;
9795;SDS011;4937;42.680;27.704;2024-02-26T01:17:07;26.17;;;11.98;;
9795;SDS011;4937;42.680;27.704;2024-02-26T01:19:32;20.58;;;10.85;;
9795;SDS011;4937;42.680;27.704;2024-02-26T01:21:58;21.63;;;11.55;;
9795;SDS011;4937;42.680;27.704;2024-02-26T01:24:23;23.30;;;12.35;;
9795;SDS011;4937;42.680;27.704;2024-02-26T01:26:49;23.13;;;12.13;;
9795;SDS011;4937;42.680;27.704;2024-02-26T01:29:14;23.75;;;11.93;;
9795;SDS011;4937;42.680;27.704;2024-02-26T01:31:40;19.85;;;11.52;;
9795;SDS011;4937;42.680;27.704;2024-02-26T01:34:05;22.98;;;11.77;;
9795;SDS011;4937;42.680;27.704;2024-02-26T01:36:31;21.27;;;10.95;;
9795;SDS011;4937;42.680;27.704;2024-02-26T01:38:56;23.40;;;10.68;;
9795;SDS011;4937;42.680;27.704;2024-02-26T01:41:22;24.63;;;12.48;;
9795;SDS011;4937;42.680;27.704;2024-02-26T01:43:48;21.35;;;11.98;;
9795;SDS011;4937;42.680;27.704;2024-02-26T01:46:14;20.45;;;11.55;;
9795;SDS011;4937;42.680;27.704;2024-02-26T01:48:43;24.02;;;11.00;;
9795;SDS011;4937;42.680;27.704;2024-02-26T01:51:12;19.27;;;11.32;;
9795;SDS011;4937;42.680;27.704;2024-02-26T01:53:42;21.98;;;11.43;;
9795;SDS011;4937;42.680;27.704;2024-02-26T01:56:08;20.80;;;11.40;;
9795;SDS011;4937;42.680;27.704;2024-02-26T01:58:34;24.10;;;12.10;;
9795;SDS011;4937;42.680;27.704;2024-02-26T02:01:01;24.73;;;12.30;;
9795;SDS011;4937;42.680;27.704;2024-02-26T02:03:28;23.25;;;12.15;;
9795;SDS011;4937;42.680;27.704;2024-02-26T02:05:54;24.80;;;12.85;;
9795;SDS011;4937;42.680;27.704;2024-02-26T02:08:20;21.70;;;12.90;;
9795;SDS011;4937;42.680;27.704;2024-02-26T02:10:48;26.42;;;12.30;;
9795;SDS011;4937;42.680;27.704;2024-02-26T02:13:14;19.00;;;10.80;;
9795;SDS011;4937;42.680;27.704;2024-02-26T02:15:40;21.88;;;12.20;;
9795;SDS011;4937;42.680;27.704;2024-02-26T02:18:06;22.73;;;12.02;;
9795;SDS011;4937;42.680;27.704;2024-02-26T02:20:32;29.40;;;12.60;;
9795;SDS011;4937;42.680;27.704;2024-02-26T02:22:59;24.58;;;13.52;;
9795;SDS011;4937;42.680;27.704;2024-02-26T02:25:24;21.15;;;11.35;;
9795;SDS011;4937;42.680;27.704;2024-02-26T02:27:50;22.15;;;11.10;;
9795;SDS011;4937;42.680;27.704;2024-02-26T02:30:17;23.80;;;11.70;;
9795;SDS011;4937;42.680;27.704;2024-02-26T02:32:42;27.88;;;11.25;;
9795;SDS011;4937;42.680;27.704;2024-02-26T02:35:08;23.15;;;10.80;;
9795;SDS011;4937;42.680;27.704;2024-02-26T02:37:34;21.85;;;11.73;;
9795;SDS011;4937;42.680;27.704;2024-02-26T02:39:59;26.90;;;11.90;;
9795;SDS011;4937;42.680;27.704;2024-02-26T02:42:25;25.13;;;12.70;;
9795;SDS011;4937;42.680;27.704;2024-02-26T02:44:51;24.70;;;11.63;;
9795;SDS011;4937;42.680;27.704;2024-02-26T02:47:17;21.45;;;12.75;;
9795;SDS011;4937;42.680;27.704;2024-02-26T02:49:42;25.02;;;11.35;;
9795;SDS011;4937;42.680;27.704;2024-02-26T02:52:08;20.00;;;10.80;;
9795;SDS011;4937;42.680;27.704;2024-02-26T02:54:33;22.83;;;11.45;;
9795;SDS011;4937;42.680;27.704;2024-02-26T02:56:59;23.60;;;10.85;;
9795;SDS011;4937;42.680;27.704;2024-02-26T02:59:25;23.92;;;11.82;;
9795;SDS011;4937;42.680;27.704;2024-02-26T03:01:50;21.38;;;11.38;;
9795;SDS011;4937;42.680;27.704;2024-02-26T03:04:16;22.40;;;11.75;;
9795;SDS011;4937;42.680;27.704;2024-02-26T03:06:41;21.55;;;11.85;;
9795;SDS011;4937;42.680;27.704;2024-02-26T03:09:06;21.38;;;12.02;;
9795;SDS011;4937;42.680;27.704;2024-02-26T03:11:32;21.58;;;10.63;;
9795;SDS011;4937;42.680;27.704;2024-02-26T03:13:58;22.20;;;10.60;;
9795;SDS011;4937;42.680;27.704;2024-02-26T03:16:23;29.33;;;12.48;;
9795;SDS011;4937;42.680;27.704;2024-02-26T03:18:49;23.38;;;11.63;;
9795;SDS011;4937;42.680;27.704;2024-02-26T03:21:14;21.50;;;11.65;;
9795;SDS011;4937;42.680;27.704;2024-02-26T03:23:40;22.13;;;10.82;;
9795;SDS011;4937;42.680;27.704;2024-02-26T03:26:05;20.05;;;11.32;;
9795;SDS011;4937;42.680;27.704;2024-02-26T03:28:31;20.48;;;10.45;;
9795;SDS011;4937;42.680;27.704;2024-02-26T03:30:58;23.33;;;12.40;;
9795;SDS011;4937;42.680;27.704;2024-02-26T03:33:24;24.23;;;12.57;;
9795;SDS011;4937;42.680;27.704;2024-02-26T03:35:50;21.10;;;10.65;;
9795;SDS011;4937;42.680;27.704;2024-02-26T03:38:16;25.40;;;12.32;;
9795;SDS011;4937;42.680;27.704;2024-02-26T03:40:41;25.88;;;11.95;;
9795;SDS011;4937;42.680;27.704;2024-02-26T03:43:06;24.95;;;12.45;;
9795;SDS011;4937;42.680;27.704;2024-02-26T03:45:32;20.88;;;11.43;;
9795;SDS011;4937;42.680;27.704;2024-02-26T03:47:58;19.17;;;10.27;;
9795;SDS011;4937;42.680;27.704;2024-02-26T03:50:24;24.90;;;12.10;;
9795;SDS011;4937;42.680;27.704;2024-02-26T03:52:49;22.58;;;10.98;;
9795;SDS011;4937;42.680;27.704;2024-02-26T03:55:15;23.08;;;11.95;;
9795;SDS011;4937;42.680;27.704;2024-02-26T03:57:40;19.97;;;11.40;;
9795;SDS011;4937;42.680;27.704;2024-02-26T04:00:06;23.67;;;11.50;;
9795;SDS011;4937;42.680;27.704;2024-02-26T04:02:32;24.77;;;11.57;;
9795;SDS011;4937;42.680;27.704;2024-02-26T04:04:57;22.63;;;11.15;;
9795;SDS011;4937;42.680;27.704;2024-02-26T04:07:24;23.60;;;11.55;;
9795;SDS011;4937;42.680;27.704;2024-02-26T04:09:49;22.65;;;11.70;;
9795;SDS011;4937;42.680;27.704;2024-02-26T04:12:15;18.58;;;10.32;;
9795;SDS011;4937;42.680;27.704;2024-02-26T04:14:40;21.25;;;10.70;;
9795;SDS011;4937;42.680;27.704;2024-02-26T04:17:06;21.90;;;10.43;;
9795;SDS011;4937;42.680;27.704;2024-02-26T04:19:32;19.35;;;9.65;;
9795;SDS011;4937;42.680;27.704;2024-02-26T04:21:57;22.67;;;11.48;;
9795;SDS011;4937;42.680;27.704;2024-02-26T04:24:23;21.23;;;11.25;;
9795;SDS011;4937;42.680;27.704;2024-02-26T04:26:48;20.23;;;11.07;;
9795;SDS011;4937;42.680;27.704;2024-02-26T04:29:15;18.98;;;10.48;;
9795;SDS011;4937;42.680;27.704;2024-02-26T04:31:40;19.38;;;11.65;;
9795;SDS011;4937;42.680;27.704;2024-02-26T04:34:07;20.70;;;11.40;;
9795;SDS011;4937;42.680;27.704;2024-02-26T04:36:33;21.83;;;11.45;;
9795;SDS011;4937;42.680;27.704;2024-02-26T04:38:58;20.52;;;9.85;;
9795;SDS011;4937;42.680;27.704;2024-02-26T04:41:24;23.30;;;10.82;;
9795;SDS011;4937;42.680;27.704;2024-02-26T04:43:50;24.20;;;11.40;;
9795;SDS011;4937;42.680;27.704;2024-02-26T04:46:15;23.15;;;12.20;;
9795;SDS011;4937;42.680;27.704;2024-02-26T04:48:41;21.52;;;10.88;;
9795;SDS011;4937;42.680;27.704;2024-02-26T04:51:11;22.48;;;12.43;;
9795;SDS011;4937;42.680;27.704;2024-02-26T04:53:37;25.00;;;13.88;;
9795;SDS011;4937;42.680;27.704;2024-02-26T04:56:02;30.38;;;17.67;;
9795;SDS011;4937;42.680;27.704;2024-02-26T04:58:28;29.95;;;16.40;;
9795;SDS011;4937;42.680;27.704;2024-02-26T05:00:53;30.25;;;15.05;;
9795;SDS011;4937;42.680;27.704;2024-02-26T05:03:19;26.77;;;15.05;;
9795;SDS011;4937;42.680;27.704;2024-02-26T05:05:45;26.35;;;14.70;;
9795;SDS011;4937;42.680;27.704;2024-02-26T05:08:10;25.33;;;13.48;;
9795;SDS011;4937;42.680;27.704;2024-02-26T05:10:39;21.52;;;12.27;;
9795;SDS011;4937;42.680;27.704;2024-02-26T05:13:08;23.08;;;11.25;;
9795;SDS011;4937;42.680;27.704;2024-02-26T05:15:34;19.05;;;10.52;;
9795;SDS011;4937;42.680;27.704;2024-02-26T05:18:00;21.35;;;11.45;;
9795;SDS011;4937;42.680;27.704;2024-02-26T05:20:26;19.10;;;10.00;;
9795;SDS011;4937;42.680;27.704;2024-02-26T05:22:51;17.42;;;10.55;;
9795;SDS011;4937;42.680;27.704;2024-02-26T05:25:17;16.42;;;8.77;;
9795;SDS011;4937;42.680;27.704;2024-02-26T05:27:43;17.90;;;10.05;;
9795;SDS011;4937;42.680;27.704;2024-02-26T05:30:09;18.52;;;10.23;;
9795;SDS011;4937;42.680;27.704;2024-02-26T05:32:36;17.10;;;9.65;;
9795;SDS011;4937;42.680;27.704;2024-02-26T05:35:01;19.48;;;9.75;;
9795;SDS011;4937;42.680;27.704;2024-02-26T05:37:30;17.02;;;9.52;;
9795;SDS011;4937;42.680;27.704;2024-02-26T05:39:56;16.90;;;9.80;;
9795;SDS011;4937;42.680;27.704;2024-02-26T05:42:22;15.43;;;8.70;;
9795;SDS011;4937;42.680;27.704;2024-02-26T05:44:47;17.60;;;8.65;;
9795;SDS011;4937;42.680;27.704;2024-02-26T05:47:12;19.00;;;9.45;;
9795;SDS011;4937;42.680;27.704;2024-02-26T05:49:38;15.25;;;8.32;;
9795;SDS011;4937;42.680;27.704;2024-02-26T05:52:04;19.73;;;9.98;;
9795;SDS011;4937;42.680;27.704;2024-02-26T05:54:30;16.20;;;9.13;;
9795;SDS011;4937;42.680;27.704;2024-02-26T05:56:56;18.80;;;10.95;;
9795;SDS011;4937;42.680;27.704;2024-02-26T05:59:22;21.02;;;12.15;;
9795;SDS011;4937;42.680;27.704;2024-02-26T06:01:47;17.75;;;11.23;;
9795;SDS011;4937;42.680;27.704;2024-02-26T06:04:13;22.20;;;13.45;;
9795;SDS011;4937;42.680;27.704;2024-02-26T06:06:38;17.15;;;9.75;;
9795;SDS011;4937;42.680;27.704;2024-02-26T06:09:04;16.90;;;8.45;;
9795;SDS011;4937;42.680;27.704;2024-02-26T06:11:30;16.25;;;9.00;;
9795;SDS011;4937;42.680;27.704;2024-02-26T06:13:56;23.30;;;10.32;;
9795;SDS011;4937;42.680;27.704;2024-02-26T06:16:24;17.05;;;9.60;;
9795;SDS011;4937;42.680;27.704;2024-02-26T06:18:50;15.98;;;8.88;;
9795;SDS011;4937;42.680;27.704;2024-02-26T06:21:15;15.27;;;9.63;;
9795;SDS011;4937;42.680;27.704;2024-02-26T06:23:41;16.20;;;9.50;;
9795;SDS011;4937;42.680;27.704;2024-02-26T06:26:06;14.50;;;8.93;;
9795;SDS011;4937;42.680;27.704;2024-02-26T06:28:32;18.13;;;8.63;;
9795;SDS011;4937;42.680;27.704;2024-02-26T06:30:59;16.58;;;8.90;;
9795;SDS011;4937;42.680;27.704;2024-02-26T06:33:24;19.20;;;9.30;;
9795;SDS011;4937;42.680;27.704;2024-02-26T06:35:50;24.42;;;9.50;;
9795;SDS011;4937;42.680;27.704;2024-02-26T06:38:15;12.40;;;8.20;;
9795;SDS011;4937;42.680;27.704;2024-02-26T06:40:42;16.45;;;8.07;;
9795;SDS011;4937;42.680;27.704;2024-02-26T06:43:08;12.65;;;7.70;;
9795;SDS011;4937;42.680;27.704;2024-02-26T06:45:34;13.60;;;7.60;;
9795;SDS011;4937;42.680;27.704;2024-02-26T06:48:00;13.48;;;7.22;;
9795;SDS011;4937;42.680;27.704;2024-02-26T06:50:25;12.85;;;7.28;;
9795;SDS011;4937;42.680;27.704;2024-02-26T06:52:51;16.05;;;8.23;;
9795;SDS011;4937;42.680;27.704;2024-02-26T06:55:17;14.40;;;7.43;;
9795;SDS011;4937;42.680;27.704;2024-02-26T06:57:42;14.30;;;8.23;;
9795;SDS011;4937;42.680;27.704;2024-02-26T07:00:08;11.80;;;6.78;;
9795;SDS011;4937;42.680;27.704;2024-02-26T07:05:02;12.07;;;6.18;;
9795;SDS011;4937;42.680;27.704;2024-02-26T07:07:28;10.18;;;5.25;;
9795;SDS011;4937;42.680;27.704;2024-02-26T07:09:54;10.60;;;6.55;;
9795;SDS011;4937;42.680;27.704;2024-02-26T07:12:20;6.20;;;4.97;;
9795;SDS011;4937;42.680;27.704;2024-02-26T07:14:46;8.30;;;6.30;;
9795;SDS011;4937;42.680;27.704;2024-02-26T07:17:12;8.80;;;6.80;;
9795;SDS011;4937;42.680;27.704;2024-02-26T07:19:38;7.95;;;6.63;;
9795;SDS011;4937;42.680;27.704;2024-02-26T07:22:04;8.93;;;6.55;;
9795;SDS011;4937;42.680;27.704;2024-02-26T07:24:29;55.05;;;9.27;;
9795;SDS011;4937;42.680;27.704;2024-02-26T07:26:55;14.48;;;6.90;;
9795;SDS011;4937;42.680;27.704;2024-02-26T07:29:21;12.60;;;6.82;;
9795;SDS011;4937;42.680;27.704;2024-02-26T07:31:47;13.52;;;6.30;;
9795;SDS011;4937;42.680;27.704;2024-02-26T07:34:12;13.07;;;7.00;;
9795;SDS011;4937;42.680;27.704;2024-02-26T07:36:38;42.58;;;8.93;;
9795;SDS011;4937;42.680;27.704;2024-02-26T07:39:04;14.77;;;7.45;;
9795;SDS011;4937;42.680;27.704;2024-02-26T07:41:30;36.08;;;8.25;;
9795;SDS011;4937;42.680;27.704;2024-02-26T07:43:55;13.73;;;6.22;;
9795;SDS011;4937;42.680;27.704;2024-02-26T07:46:21;10.23;;;4.75;;
9795;SDS011;4937;42.680;27.704;2024-02-26T07:48:47;9.77;;;4.80;;
9795;SDS011;4937;42.680;27.704;2024-02-26T07:51:13;11.32;;;4.38;;
9795;SDS011;4937;42.680;27.704;2024-02-26T07:53:39;9.73;;;4.30;;
9795;SDS011;4937;42.680;27.704;2024-02-26T07:56:05;11.25;;;4.72;;
9795;SDS011;4937;42.680;27.704;2024-02-26T07:58:32;11.07;;;4.72;;
9795;SDS011;4937;42.680;27.704;2024-02-26T08:00:58;11.88;;;4.65;;
9795;SDS011;4937;42.680;27.704;2024-02-26T08:03:23;10.38;;;4.40;;
9795;SDS011;4937;42.680;27.704;2024-02-26T08:05:50;10.90;;;4.20;;
9795;SDS011;4937;42.680;27.704;2024-02-26T08:08:16;16.88;;;5.25;;
9795;SDS011;4937;42.680;27.704;2024-02-26T08:10:42;16.13;;;4.65;;
9795;SDS011;4937;42.680;27.704;2024-02-26T08:13:07;9.63;;;3.45;;
9795;SDS011;4937;42.680;27.704;2024-02-26T08:15:36;10.48;;;3.75;;
9795;SDS011;4937;42.680;27.704;2024-02-26T08:18:04;16.75;;;4.38;;
9795;SDS011;4937;42.680;27.704;2024-02-26T08:20:31;19.98;;;3.88;;
9795;SDS011;4937;42.680;27.704;2024-02-26T08:22:57;9.27;;;4.35;;
9795;SDS011;4937;42.680;27.704;2024-02-26T08:25:23;16.70;;;4.00;;
9795;SDS011;4937;42.680;27.704;2024-02-26T08:27:49;11.45;;;3.80;;
9795;SDS011;4937;42.680;27.704;2024-02-26T08:30:15;7.95;;;3.15;;
9795;SDS011;4937;42.680;27.704;2024-02-26T08:32:45;9.13;;;3.80;;
9795;SDS011;4937;42.680;27.704;2024-02-26T08:35:11;9.85;;;3.55;;
9795;SDS011;4937;42.680;27.704;2024-02-26T08:37:36;8.23;;;3.65;;
9795;SDS011;4937;42.680;27.704;2024-02-26T08:40:02;10.40;;;3.92;;
9795;SDS011;4937;42.680;27.704;2024-02-26T08:42:29;6.38;;;2.97;;
9795;SDS011;4937;42.680;27.704;2024-02-26T08:44:55;7.40;;;3.55;;
9795;SDS011;4937;42.680;27.704;2024-02-26T08:47:20;11.73;;;3.67;;
9795;SDS011;4937;42.680;27.704;2024-02-26T08:49:46;8.05;;;3.47;;
9795;SDS011;4937;42.680;27.704;2024-02-26T08:52:11;12.55;;;3.17;;
9795;SDS011;4937;42.680;27.704;2024-02-26T08:54:37;16.95;;;3.35;;
9795;SDS011;4937;42.680;27.704;2024-02-26T08:57:03;8.75;;;3.53;;
9795;SDS011;4937;42.680;27.704;2024-02-26T08:59:29;9.00;;;3.53;;
9795;SDS011;4937;42.680;27.704;2024-02-26T09:01:54;7.80;;;2.70;;
9795;SDS011;4937;42.680;27.704;2024-02-26T09:04:20;6.88;;;2.97;;
9795;SDS011;4937;42.680;27.704;2024-02-26T09:06:46;8.05;;;2.80;;
9795;SDS011;4937;42.680;27.704;2024-02-26T09:09:12;16.77;;;5.43;;
9795;SDS011;4937;42.680;27.704;2024-02-26T09:11:37;9.68;;;3.70;;
9795;SDS011;4937;42.680;27.704;2024-02-26T09:14:03;15.88;;;3.83;;
9795;SDS011;4937;42.680;27.704;2024-02-26T09:16:29;7.72;;;2.92;;
9795;SDS011;4937;42.680;27.704;2024-02-26T09:18:55;5.80;;;2.80;;
9795;SDS011;4937;42.680;27.704;2024-02-26T09:21:21;8.93;;;3.25;;
9795;SDS011;4937;42.680;27.704;2024-02-26T09:23:51;8.93;;;3.05;;
9795;SDS011;4937;42.680;27.704;2024-02-26T09:28:43;7.38;;;3.33;;
9795;SDS011;4937;42.680;27.704;2024-02-26T09:31:09;10.00;;;3.50;;
9795;SDS011;4937;42.680;27.704;2024-02-26T09:33:35;8.27;;;3.42;;
9795;SDS011;4937;42.680;27.704;2024-02-26T09:36:01;8.50;;;3.45;;
9795;SDS011;4937;42.680;27.704;2024-02-26T09:38:27;14.57;;;3.28;;
9795;SDS011;4937;42.680;27.704;2024-02-26T09:40:53;9.20;;;2.78;;
9795;SDS011;4937;42.680;27.704;2024-02-26T09:43:21;11.68;;;3.38;;
9795;SDS011;4937;42.680;27.704;2024-02-26T09:45:50;9.70;;;3.70;;
9795;SDS011;4937;42.680;27.704;2024-02-26T09:48:18;10.82;;;3.47;;
9795;SDS011;4937;42.680;27.704;2024-02-26T09:50:45;7.70;;;2.80;;
9795;SDS011;4937;42.680;27.704;2024-02-26T09:53:12;6.30;;;2.42;;
9795;SDS011;4937;42.680;27.704;2024-02-26T09:55:38;10.10;;;3.35;;
9795;SDS011;4937;42.680;27.704;2024-02-26T09:58:04;5.55;;;2.17;;
9795;SDS011;4937;42.680;27.704;2024-02-26T10:00:31;8.40;;;2.67;;
9795;SDS011;4937;42.680;27.704;2024-02-26T10:03:02;9.73;;;2.97;;
9795;SDS011;4937;42.680;27.704;2024-02-26T10:05:30;9.02;;;3.50;;
9795;SDS011;4937;42.680;27.704;2024-02-26T10:07:58;7.10;;;2.35;;
9795;SDS011;4937;42.680;27.704;2024-02-26T10:10:27;7.32;;;2.72;;
9795;SDS011;4937;42.680;27.704;2024-02-26T10:12:54;12.10;;;2.97;;
9795;SDS011;4937;42.680;27.704;2024-02-26T10:15:19;6.95;;;2.83;;
9795;SDS011;4937;42.680;27.704;2024-02-26T10:17:45;9.90;;;3.25;;
9795;SDS011;4937;42.680;27.704;2024-02-26T10:20:11;11.65;;;3.42;;
9795;SDS011;4937;42.680;27.704;2024-02-26T10:22:43;8.00;;;2.58;;
9795;SDS011;4937;42.680;27.704;2024-02-26T10:25:09;6.40;;;3.22;;
9795;SDS011;4937;42.680;27.704;2024-02-26T10:27:35;10.30;;;2.90;;
9795;SDS011;4937;42.680;27.704;2024-02-26T10:30:04;6.53;;;3.17;;
9795;SDS011;4937;42.680;27.704;2024-02-26T10:32:41;5.40;;;2.50;;
9795;SDS011;4937;42.680;27.704;2024-02-26T10:35:08;10.10;;;2.85;;
9795;SDS011;4937;42.680;27.704;2024-02-26T10:37:34;4.97;;;2.20;;
9795;SDS011;4937;42.680;27.704;2024-02-26T10:39:59;10.70;;;3.65;;
9795;SDS011;4937;42.680;27.704;2024-02-26T10:42:25;5.28;;;2.65;;
9795;SDS011;4937;42.680;27.704;2024-02-26T10:44:51;6.05;;;2.95;;
9795;SDS011;4937;42.680;27.704;2024-02-26T10:47:16;6.35;;;2.63;;
9795;SDS011;4937;42.680;27.704;2024-02-26T10:49:48;7.03;;;2.90;;
9795;SDS011;4937;42.680;27.704;2024-02-26T10:52:15;5.45;;;2.53;;
9795;SDS011;4937;42.680;27.704;2024-02-26T10:54:44;7.05;;;2.42;;
9795;SDS011;4937;42.680;27.704;2024-02-26T10:57:13;6.68;;;2.70;;
9795;SDS011;4937;42.680;27.704;2024-02-26T10:59:41;15.15;;;3.03;;
9795;SDS011;4937;42.680;27.704;2024-02-26T11:02:08;6.03;;;2.78;;
9795;SDS011;4937;42.680;27.704;2024-02-26T11:04:35;6.22;;;2.42;;
9795;SDS011;4937;42.680;27.704;2024-02-26T11:07:01;7.40;;;3.75;;
9795;SDS011;4937;42.680;27.704;2024-02-26T11:09:29;8.65;;;2.72;;
9795;SDS011;4937;42.680;27.704;2024-02-26T11:11:59;10.93;;;2.85;;
9795;SDS011;4937;42.680;27.704;2024-02-26T11:14:26;8.98;;;3.00;;
9795;SDS011;4937;42.680;27.704;2024-02-26T11:16:51;7.18;;;3.20;;
9795;SDS011;4937;42.680;27.704;2024-02-26T11:19:17;8.25;;;3.25;;
9795;SDS011;4937;42.680;27.704;2024-02-26T11:21:44;11.25;;;3.75;;
9795;SDS011;4937;42.680;27.704;2024-02-26T11:24:11;11.32;;;3.28;;
9795;SDS011;4937;42.680;27.704;2024-02-26T11:26:40;11.48;;;3.40;;
9795;SDS011;4937;42.680;27.704;2024-02-26T11:29:23;26.70;;;4.78;;
9795;SDS011;4937;42.680;27.704;2024-02-26T11:31:52;8.90;;;2.67;;
9795;SDS011;4937;42.680;27.704;2024-02-26T11:34:18;8.48;;;3.20;;
9795;SDS011;4937;42.680;27.704;2024-02-26T11:36:44;14.23;;;2.90;;
9795;SDS011;4937;42.680;27.704;2024-02-26T11:39:11;11.93;;;3.25;;
9795;SDS011;4937;42.680;27.704;2024-02-26T11:41:38;24.95;;;3.85;;
9795;SDS011;4937;42.680;27.704;2024-02-26T11:44:03;8.60;;;2.20;;
9795;SDS011;4937;42.680;27.704;2024-02-26T11:46:32;7.70;;;3.15;;
9795;SDS011;4937;42.680;27.704;2024-02-26T11:49:03;7.00;;;2.17;;
9795;SDS011;4937;42.680;27.704;2024-02-26T11:51:52;7.30;;;2.90;;
9795;SDS011;4937;42.680;27.704;2024-02-26T11:59:50;8.57;;;3.47;;
9795;SDS011;4937;42.680;27.704;2024-02-26T12:05:08;11.82;;;2.78;;
9795;SDS011;4937;42.680;27.704;2024-02-26T12:07:39;6.18;;;2.70;;
9795;SDS011;4937;42.680;27.704;2024-02-26T12:10:47;6.05;;;2.78;;
9795;SDS011;4937;42.680;27.704;2024-02-26T12:13:00;6.88;;;3.30;;
9795;SDS011;4937;42.680;27.704;2024-02-26T12:15:31;9.02;;;3.25;;
9795;SDS011;4937;42.680;27.704;2024-02-26T12:18:00;5.53;;;2.95;;
9795;SDS011;4937;42.680;27.704;2024-02-26T12:20:26;10.15;;;3.47;;
9795;SDS011;4937;42.680;27.704;2024-02-26T12:22:52;5.65;;;3.28;;
9795;SDS011;4937;42.680;27.704;2024-02-26T12:25:24;7.70;;;3.55;;
9795;SDS011;4937;42.680;27.704;2024-02-26T12:27:52;5.30;;;2.60;;
9795;SDS011;4937;42.680;27.704;2024-02-26T12:30:21;7.70;;;3.17;;
9795;SDS011;4937;42.680;27.704;2024-02-26T12:32:48;10.80;;;3.38;;
9795;SDS011;4937;42.680;27.704;2024-02-26T12:35:14;13.32;;;3.60;;
9795;SDS011;4937;42.680;27.704;2024-02-26T12:37:41;12.27;;;3.65;;
9795;SDS011;4937;42.680;27.704;2024-02-26T12:40:10;17.52;;;3.25;;
9795;SDS011;4937;42.680;27.704;2024-02-26T12:45:06;25.52;;;3.92;;
9795;SDS011;4937;42.680;27.704;2024-02-26T12:47:40;11.73;;;3.25;;
9795;SDS011;4937;42.680;27.704;2024-02-26T12:50:10;11.30;;;3.10;;
9795;SDS011;4937;42.680;27.704;2024-02-26T12:52:40;8.88;;;3.28;;
9795;SDS011;4937;42.680;27.704;2024-02-26T12:55:08;21.98;;;3.70;;
9795;SDS011;4937;42.680;27.704;2024-02-26T12:57:39;20.35;;;3.63;;
9795;SDS011;4937;42.680;27.704;2024-02-26T13:00:06;11.77;;;3.20;;
9795;SDS011;4937;42.680;27.704;2024-02-26T13:02:35;39.55;;;5.85;;
9795;SDS011;4937;42.680;27.704;2024-02-26T13:05:03;8.27;;;2.80;;
9795;SDS011;4937;42.680;27.704;2024-02-26T13:07:30;13.88;;;3.20;;
9795;SDS011;4937;42.680;27.704;2024-02-26T13:09:56;8.60;;;2.75;;
9795;SDS011;4937;42.680;27.704;2024-02-26T13:12:22;9.70;;;2.70;;
9795;SDS011;4937;42.680;27.704;2024-02-26T13:14:48;16.10;;;3.08;;
9795;SDS011;4937;42.680;27.704;2024-02-26T13:17:24;10.48;;;3.63;;
9795;SDS011;4937;42.680;27.704;2024-02-26T13:19:52;13.63;;;3.50;;
9795;SDS011;4937;42.680;27.704;2024-02-26T13:22:20;11.18;;;2.78;;
9795;SDS011;4937;42.680;27.704;2024-02-26T13:24:57;4.90;;;2.95;;
9795;SDS011;4937;42.680;27.704;2024-02-26T13:27:24;7.90;;;2.60;;
9795;SDS011;4937;42.680;27.704;2024-02-26T13:30:12;6.10;;;2.80;;
9795;SDS011;4937;42.680;27.704;2024-02-26T13:32:39;8.63;;;3.17;;
9795;SDS011;4937;42.680;27.704;2024-02-26T13:35:10;9.68;;;3.00;;
9795;SDS011;4937;42.680;27.704;2024-02-26T13:37:37;8.70;;;2.80;;
9795;SDS011;4937;42.680;27.704;2024-02-26T13:40:04;7.78;;;2.92;;
9795;SDS011;4937;42.680;27.704;2024-02-26T13:42:31;6.65;;;2.95;;
9795;SDS011;4937;42.680;27.704;2024-02-26T13:44:56;4.32;;;2.58;;
9795;SDS011;4937;42.680;27.704;2024-02-26T13:47:22;10.07;;;3.22;;
9795;SDS011;4937;42.680;27.704;2024-02-26T13:49:47;6.65;;;2.47;;
9795;SDS011;4937;42.680;27.704;2024-02-26T13:52:13;9.00;;;2.65;;
9795;SDS011;4937;42.680;27.704;2024-02-26T13:54:39;8.50;;;3.17;;
9795;SDS011;4937;42.680;27.704;2024-02-26T13:57:05;10.00;;;3.40;;
9795;SDS011;4937;42.680;27.704;2024-02-26T13:59:31;13.93;;;2.90;;
9795;SDS011;4937;42.680;27.704;2024-02-26T14:01:56;8.55;;;3.25;;
9795;SDS011;4937;42.680;27.704;2024-02-26T14:04:22;11.25;;;3.47;;
9795;SDS011;4937;42.680;27.704;2024-02-26T14:06:48;9.07;;;2.65;;
9795;SDS011;4937;42.680;27.704;2024-02-26T14:09:13;12.35;;;3.17;;
9795;SDS011;4937;42.680;27.704;2024-02-26T14:11:44;8.77;;;3.58;;
9795;SDS011;4937;42.680;27.704;2024-02-26T14:14:10;10.77;;;3.53;;
9795;SDS011;4937;42.680;27.704;2024-02-26T14:16:36;11.57;;;3.55;;
9795;SDS011;4937;42.680;27.704;2024-02-26T14:19:02;9.60;;;3.65;;
9795;SDS011;4937;42.680;27.704;2024-02-26T14:21:28;8.57;;;2.30;;
9795;SDS011;4937;42.680;27.704;2024-02-26T14:23:54;16.05;;;3.90;;
9795;SDS011;4937;42.680;27.704;2024-02-26T14:26:21;9.77;;;2.92;;
9795;SDS011;4937;42.680;27.704;2024-02-26T14:28:47;15.20;;;3.85;;
9795;SDS011;4937;42.680;27.704;2024-02-26T14:31:13;9.95;;;3.83;;
9795;SDS011;4937;42.680;27.704;2024-02-26T14:33:38;9.63;;;2.85;;
9795;SDS011;4937;42.680;27.704;2024-02-26T14:36:07;13.38;;;3.28;;
9795;SDS011;4937;42.680;27.704;2024-02-26T14:38:33;23.40;;;3.35;;
9795;SDS011;4937;42.680;27.704;2024-02-26T14:40:58;18.40;;;3.35;;
9795;SDS011;4937;42.680;27.704;2024-02-26T14:43:24;8.15;;;4.10;;
9795;SDS011;4937;42.680;27.704;2024-02-26T14:45:49;9.68;;;4.55;;
9795;SDS011;4937;42.680;27.704;2024-02-26T14:48:15;10.48;;;3.33;;
9795;SDS011;4937;42.680;27.704;2024-02-26T14:50:40;11.20;;;3.35;;
9795;SDS011;4937;42.680;27.704;2024-02-26T14:53:06;12.70;;;3.08;;
9795;SDS011;4937;42.680;27.704;2024-02-26T14:55:32;12.20;;;3.03;;
9795;SDS011;4937;42.680;27.704;2024-02-26T14:57:57;7.97;;;4.30;;